createdAt,value
2023-02-07T00:01:10.070Z,100349.16
2023-02-07T00:03:37.345Z,100361.59
2023-02-07T00:06:10.049Z,100363.50
2023-02-07T00:08:38.602Z,100356.97
2023-02-07T00:11:07.221Z,100365.31
2023-02-07T00:13:34.769Z,100370.88
2023-02-07T00:16:03.186Z,100370.72
2023-02-07T00:18:30.418Z,100379.03
2023-02-07T00:21:02.937Z,100381.19
2023-02-07T00:23:30.300Z,100384.19
2023-02-07T00:25:57.360Z,100386.31
2023-02-07T00:28:24.677Z,100396.81
2023-02-07T00:30:52.306Z,100388.31
2023-02-07T00:33:19.523Z,100389.06
2023-02-07T00:35:46.693Z,100386.66
2023-02-07T00:38:13.735Z,100398.41
2023-02-07T00:40:40.781Z,100396.88
2023-02-07T00:43:08.074Z,100395.25
2023-02-07T00:45:35.306Z,100387.59
2023-02-07T00:48:02.867Z,100380.34
2023-02-07T00:50:29.896Z,100387.88
2023-02-07T00:52:56.981Z,100382.19
2023-02-07T00:55:24.027Z,100390.75
2023-02-07T00:57:51.181Z,100390.31
2023-02-07T01:00:18.315Z,100391.00
2023-02-07T01:02:45.557Z,100389.91
2023-02-07T01:05:12.691Z,100387.47
2023-02-07T01:07:40.018Z,100397.09
2023-02-07T01:10:07.678Z,100389.44
2023-02-07T01:12:34.946Z,100386.69
2023-02-07T01:15:02.429Z,100381.31
2023-02-07T01:17:29.580Z,100381.19
2023-02-07T01:19:58.680Z,100386.66
2023-02-07T01:22:26.853Z,100384.47
2023-02-07T01:24:55.029Z,100391.13
2023-02-07T01:27:23.318Z,100384.50
2023-02-07T01:29:50.702Z,100378.06
2023-02-07T01:32:17.959Z,100388.03
2023-02-07T01:34:45.256Z,100384.63
2023-02-07T01:37:12.651Z,100379.56
2023-02-07T01:39:39.898Z,100377.47
2023-02-07T01:42:07.347Z,100373.81
2023-02-07T01:44:37.431Z,100373.56
2023-02-07T01:47:04.546Z,100376.00
2023-02-07T01:49:34.326Z,100375.56
2023-02-07T01:52:08.806Z,100358.19
2023-02-07T01:54:36.658Z,100354.94
2023-02-07T01:57:07.264Z,100349.75
2023-02-07T01:59:36.018Z,100357.28
2023-02-07T02:02:04.621Z,100361.06
2023-02-07T02:04:31.983Z,100351.28
2023-02-07T02:06:59.895Z,100350.59
2023-02-07T02:09:27.509Z,100349.19
2023-02-07T02:12:03.854Z,100345.41
2023-02-07T02:14:55.375Z,100362.00
2023-02-07T02:17:40.182Z,100357.81
2023-02-07T02:20:44.739Z,100354.44
2023-02-07T02:23:20.579Z,100346.88
2023-02-07T02:26:05.610Z,100343.44
2023-02-07T02:29:00.710Z,100338.44
2023-02-07T02:31:51.867Z,100335.47
2023-02-07T02:34:38.707Z,100322.22
2023-02-07T02:37:36.326Z,100332.91
2023-02-07T02:40:08.100Z,100332.72
2023-02-07T02:42:42.431Z,100325.50
2023-02-07T02:45:16.886Z,100328.94
2023-02-07T02:47:45.803Z,100332.38
2023-02-07T02:50:15.776Z,100332.28
2023-02-07T02:52:50.517Z,100335.69
2023-02-07T02:55:22.735Z,100337.59
2023-02-07T02:58:11.547Z,100335.28
2023-02-07T03:00:46.635Z,100341.56
2023-02-07T03:03:49.171Z,100348.00
2023-02-07T03:06:35.301Z,100338.47
2023-02-07T03:09:30.212Z,100338.34
2023-02-07T03:12:22.229Z,100344.25
2023-02-07T03:14:53.290Z,100343.69
2023-02-07T03:17:25.030Z,100346.22
2023-02-07T03:20:30.841Z,100338.72
2023-02-07T03:22:59.213Z,100341.72
2023-02-07T03:25:27.748Z,100349.69
2023-02-07T03:27:56.111Z,100346.69
2023-02-07T03:30:26.611Z,100347.69
2023-02-07T03:32:58.594Z,100349.91
2023-02-07T03:36:06.054Z,100343.38
2023-02-07T03:38:33.179Z,100333.00
2023-02-07T03:41:05.344Z,100331.00
2023-02-07T03:43:33.614Z,100328.34
2023-02-07T03:46:00.733Z,100330.25
2023-02-07T03:48:27.798Z,100333.97
2023-02-07T03:50:54.883Z,100345.03
2023-02-07T03:53:21.950Z,100348.91
2023-02-07T03:55:49.021Z,100342.50
2023-02-07T03:58:16.064Z,100342.81
2023-02-07T04:00:43.157Z,100344.16
2023-02-07T04:03:10.528Z,100342.59
2023-02-07T04:05:38.127Z,100338.41
2023-02-07T04:08:05.483Z,100338.19
2023-02-07T04:10:32.569Z,100336.97
2023-02-07T04:12:59.632Z,100338.84
2023-02-07T04:15:26.830Z,100333.19
2023-02-07T04:17:53.851Z,100340.84
2023-02-07T04:20:21.017Z,100338.19
2023-02-07T04:22:48.263Z,100343.16
2023-02-07T04:25:15.359Z,100330.00
2023-02-07T04:27:42.524Z,100333.00
2023-02-07T04:30:10.151Z,100329.13
2023-02-07T04:32:37.203Z,100332.00
2023-02-07T04:35:04.591Z,100329.00
2023-02-07T04:37:32.039Z,100330.16
2023-02-07T04:39:59.136Z,100338.53
2023-02-07T04:42:26.191Z,100342.50
2023-02-07T04:44:53.300Z,100335.75
2023-02-07T04:47:20.365Z,100340.06
2023-02-07T04:49:47.487Z,100345.72
2023-02-07T04:52:14.668Z,100345.38
2023-02-07T04:54:41.734Z,100354.63
2023-02-07T04:57:08.905Z,100355.75
2023-02-07T04:59:35.973Z,100358.63
2023-02-07T05:02:03.010Z,100358.25
2023-02-07T05:04:30.144Z,100371.88
2023-02-07T05:06:58.181Z,100377.59
2023-02-07T05:09:25.517Z,100383.66
2023-02-07T05:11:52.655Z,100378.28
2023-02-07T05:14:19.742Z,100386.88
2023-02-07T05:16:46.996Z,100396.69
2023-02-07T05:19:14.072Z,100402.13
2023-02-07T05:21:41.145Z,100407.19
2023-02-07T05:24:08.273Z,100400.13
2023-02-07T05:26:35.352Z,100407.56
2023-02-07T05:29:02.512Z,100400.72
2023-02-07T05:32:06.861Z,100399.81
2023-02-07T05:34:34.077Z,100399.34
2023-02-07T05:37:01.120Z,100397.47
2023-02-07T05:39:28.183Z,100387.09
2023-02-07T05:41:55.268Z,100388.88
2023-02-07T05:44:22.800Z,100389.44
2023-02-07T05:46:51.777Z,100386.66
2023-02-07T05:49:19.668Z,100384.13
2023-02-07T05:51:46.697Z,100378.94
2023-02-07T05:54:13.721Z,100386.88
2023-02-07T05:56:40.772Z,100391.41
2023-02-07T05:59:07.831Z,100384.69
2023-02-07T06:01:37.322Z,100379.91
2023-02-07T06:04:04.583Z,100379.59
2023-02-07T06:06:31.636Z,100383.31
2023-02-07T06:08:58.678Z,100385.22
2023-02-07T06:11:25.977Z,100385.53
2023-02-07T06:13:53.050Z,100387.69
2023-02-07T06:16:20.186Z,100388.31
2023-02-07T06:18:47.292Z,100376.28
2023-02-07T06:21:14.347Z,100382.25
2023-02-07T06:23:41.445Z,100371.53
2023-02-07T06:26:08.725Z,100364.34
2023-02-07T06:28:35.758Z,100359.06
2023-02-07T06:31:03.002Z,100363.34
2023-02-07T06:33:30.540Z,100365.47
2023-02-07T06:35:57.562Z,100367.88
2023-02-07T06:38:24.599Z,100360.72
2023-02-07T06:40:51.817Z,100362.59
2023-02-07T06:43:18.892Z,100361.03
2023-02-07T06:45:46.042Z,100365.66
2023-02-07T06:48:13.217Z,100365.38
2023-02-07T06:50:40.241Z,100363.22
2023-02-07T06:53:07.258Z,100368.66
2023-02-07T06:55:39.564Z,100370.53
2023-02-07T06:58:07.262Z,100363.34
2023-02-07T07:00:34.312Z,100374.06
2023-02-07T07:03:01.803Z,100368.00
2023-02-07T07:05:29.705Z,100367.56
2023-02-07T07:07:57.060Z,100369.78
2023-02-07T07:10:24.215Z,100363.78
2023-02-07T07:12:51.259Z,100370.66
2023-02-07T07:15:18.365Z,100365.91
2023-02-07T07:17:45.414Z,100377.72
2023-02-07T07:20:13.047Z,100373.31
2023-02-07T07:22:40.089Z,100375.84
2023-02-07T07:25:07.202Z,100382.16
2023-02-07T07:27:34.380Z,100383.16
2023-02-07T07:30:01.505Z,100382.47
2023-02-07T07:32:34.340Z,100382.72
2023-02-07T07:35:02.621Z,100389.00
2023-02-07T07:37:29.739Z,100388.66
2023-02-07T07:39:57.139Z,100382.81
2023-02-07T07:42:24.200Z,100385.81
2023-02-07T07:44:51.360Z,100390.66
2023-02-07T07:47:18.977Z,100393.56
2023-02-07T07:49:46.083Z,100389.25
2023-02-07T07:52:13.098Z,100399.28
2023-02-07T07:54:40.136Z,100397.84
2023-02-07T07:57:07.199Z,100399.50
2023-02-07T07:59:34.286Z,100404.44
2023-02-07T08:02:01.400Z,100406.06
2023-02-07T08:04:28.465Z,100404.59
2023-02-07T08:06:55.600Z,100405.81
2023-02-07T08:09:22.642Z,100396.94
2023-02-07T08:11:49.701Z,100406.22
2023-02-07T08:14:17.375Z,100412.06
2023-02-07T08:16:44.432Z,100417.47
2023-02-07T08:19:11.663Z,100420.09
2023-02-07T08:21:38.768Z,100418.13
2023-02-07T08:24:06.048Z,100413.75
2023-02-07T08:26:33.072Z,100411.03
2023-02-07T08:29:00.234Z,100422.72
2023-02-07T08:31:27.411Z,100407.88
2023-02-07T08:33:54.590Z,100408.91
2023-02-07T08:36:21.961Z,100406.50
2023-02-07T08:38:49.045Z,100412.44
2023-02-07T08:41:16.182Z,100407.94
2023-02-07T08:43:43.240Z,100413.63
2023-02-07T08:46:10.392Z,100414.63
2023-02-07T08:48:37.584Z,100410.06
2023-02-07T08:51:09.011Z,100415.19
2023-02-07T08:53:37.031Z,100419.66
2023-02-07T08:56:04.728Z,100418.53
2023-02-07T08:58:32.212Z,100421.22
2023-02-07T09:00:59.418Z,100419.28
2023-02-07T09:03:26.616Z,100427.59
2023-02-07T09:05:58.987Z,100423.75
2023-02-07T09:08:26.232Z,100427.41
2023-02-07T09:10:53.349Z,100427.63
2023-02-07T09:13:20.423Z,100435.88
2023-02-07T09:15:55.890Z,100425.41
2023-02-07T09:18:24.089Z,100422.66
2023-02-07T09:20:51.413Z,100422.88
2023-02-07T09:23:19.202Z,100429.22
2023-02-07T09:25:49.498Z,100425.94
2023-02-07T09:28:17.825Z,100428.00
2023-02-07T09:30:45.835Z,100426.22
2023-02-07T09:33:13.793Z,100422.84
2023-02-07T09:35:43.790Z,100428.31
2023-02-07T09:38:17.154Z,100433.41
2023-02-07T09:40:45.516Z,100429.34
2023-02-07T09:43:22.484Z,100434.03
2023-02-07T09:45:54.277Z,100428.06
2023-02-07T09:48:32.181Z,100426.69
2023-02-07T09:51:00.809Z,100413.00
2023-02-07T09:53:54.437Z,100415.78
2023-02-07T09:56:22.377Z,100409.78
2023-02-07T09:59:00.669Z,100411.00
2023-02-07T10:01:33.525Z,100409.88
2023-02-07T10:04:12.825Z,100399.63
2023-02-07T10:06:41.665Z,100405.78
2023-02-07T10:09:12.785Z,100403.56
2023-02-07T10:11:45.791Z,100410.44
2023-02-07T10:14:34.133Z,100407.44
2023-02-07T10:17:25.730Z,100400.66
2023-02-07T10:20:10.298Z,100394.59
2023-02-07T10:23:03.308Z,100405.44
2023-02-07T10:25:39.520Z,100406.25
2023-02-07T10:28:26.772Z,100408.59
2023-02-07T10:30:57.462Z,100399.41
2023-02-07T10:33:34.464Z,100400.19
2023-02-07T10:36:07.262Z,100403.63
2023-02-07T10:38:40.214Z,100402.09
2023-02-07T10:41:20.561Z,100394.81
2023-02-07T10:43:47.892Z,100393.63
2023-02-07T10:46:16.543Z,100399.78
2023-02-07T10:48:43.684Z,100377.09
2023-02-07T10:51:35.610Z,100385.56
2023-02-07T10:54:11.394Z,100374.78
2023-02-07T10:56:44.623Z,100379.78
2023-02-07T10:59:30.157Z,100369.78
2023-02-07T11:01:57.440Z,100365.53
2023-02-07T11:04:39.229Z,100368.59
2023-02-07T11:07:07.957Z,100363.59
2023-02-07T11:09:38.046Z,100375.84
2023-02-07T11:12:23.512Z,100358.56
2023-02-07T11:15:01.330Z,100368.50
2023-02-07T11:17:29.160Z,100357.72
2023-02-07T11:19:56.304Z,100362.69
2023-02-07T11:22:24.541Z,100359.59
2023-02-07T11:24:53.691Z,100368.44
2023-02-07T11:27:21.848Z,100359.16
2023-02-07T11:29:56.166Z,100355.31
2023-02-07T11:32:25.627Z,100356.09
2023-02-07T11:34:56.819Z,100347.59
2023-02-07T11:37:43.501Z,100353.72
2023-02-07T11:40:19.281Z,100357.13
2023-02-07T11:42:58.976Z,100355.19
2023-02-07T11:45:27.263Z,100347.81
2023-02-07T11:47:56.282Z,100342.81
2023-02-07T11:50:32.273Z,100337.06
2023-02-07T11:53:00.962Z,100340.50
2023-02-07T11:55:35.168Z,100336.28
2023-02-07T11:58:08.687Z,100338.53
2023-02-07T12:00:36.950Z,100326.22
2023-02-07T12:03:08.084Z,100325.41
2023-02-07T12:05:41.942Z,100322.00
2023-02-07T12:08:15.627Z,100328.88
2023-02-07T12:10:45.113Z,100333.84
2023-02-07T12:13:19.941Z,100336.91
2023-02-07T12:16:02.600Z,100333.75
2023-02-07T12:18:34.065Z,100327.16
2023-02-07T12:21:12.375Z,100327.91
2023-02-07T12:23:43.696Z,100331.38
2023-02-07T12:26:23.657Z,100330.94
2023-02-07T12:29:15.146Z,100332.47
2023-02-07T12:31:57.021Z,100325.56
2023-02-07T12:34:31.885Z,100328.72
2023-02-07T12:37:05.532Z,100327.19
2023-02-07T12:39:43.299Z,100324.81
2023-02-07T12:42:39.528Z,100311.56
2023-02-07T12:45:07.604Z,100310.38
2023-02-07T12:47:59.643Z,100314.56
2023-02-07T12:50:48.205Z,100299.84
2023-02-07T12:53:28.441Z,100308.28
2023-02-07T12:56:17.644Z,100313.59
2023-02-07T12:59:02.444Z,100309.72
2023-02-07T13:01:49.882Z,100310.50
2023-02-07T13:04:52.282Z,100308.63
2023-02-07T13:07:36.231Z,100310.63
2023-02-07T13:10:23.237Z,100316.00
2023-02-07T13:13:10.249Z,100309.03
2023-02-07T13:15:42.687Z,100321.34
2023-02-07T13:18:21.750Z,100310.19
2023-02-07T13:20:54.371Z,100315.94
2023-02-07T13:23:23.152Z,100306.75
2023-02-07T13:25:57.868Z,100312.50
2023-02-07T13:28:40.522Z,100303.66
2023-02-07T13:31:11.483Z,100309.03
2023-02-07T13:33:40.092Z,100304.88
2023-02-07T13:36:36.122Z,100304.16
2023-02-07T13:39:14.141Z,100303.00
2023-02-07T13:42:09.892Z,100303.44
2023-02-07T13:44:51.656Z,100298.50
2023-02-07T13:47:31.665Z,100307.75
2023-02-07T13:50:04.685Z,100310.78
2023-02-07T13:52:43.791Z,100312.78
2023-02-07T13:55:33.277Z,100310.56
2023-02-07T13:58:19.187Z,100312.91
2023-02-07T14:00:58.378Z,100310.25
2023-02-07T14:03:35.678Z,100309.84
2023-02-07T14:06:22.610Z,100310.25
2023-02-07T14:09:24.215Z,100311.81
2023-02-07T14:12:01.634Z,100297.56
2023-02-07T14:14:31.063Z,100294.09
2023-02-07T14:17:04.001Z,100299.09
2023-02-07T14:19:45.408Z,100304.88
2023-02-07T14:22:27.068Z,100297.94
2023-02-07T14:25:03.420Z,100294.88
2023-02-07T14:27:39.156Z,100291.41
2023-02-07T14:30:13.078Z,100287.56
2023-02-07T14:33:00.412Z,100285.63
2023-02-07T14:35:27.584Z,100288.31
2023-02-07T14:38:06.629Z,100281.03
2023-02-07T14:41:01.902Z,100284.16
2023-02-07T14:43:40.360Z,100284.16
2023-02-07T14:46:11.303Z,100279.63
2023-02-07T14:48:44.513Z,100281.91
2023-02-07T14:51:19.135Z,100279.22
2023-02-07T14:53:55.380Z,100283.47
2023-02-07T14:56:38.356Z,100272.75
2023-02-07T14:59:06.583Z,100264.69
2023-02-07T15:01:33.671Z,100256.97
2023-02-07T15:04:02.366Z,100256.59
2023-02-07T15:06:32.602Z,100264.28
2023-02-07T15:09:01.060Z,100258.13
2023-02-07T15:11:29.419Z,100252.38
2023-02-07T15:13:59.421Z,100247.41
2023-02-07T15:16:29.678Z,100259.66
2023-02-07T15:19:21.129Z,100254.66
2023-02-07T15:21:51.131Z,100250.41
2023-02-07T15:24:26.844Z,100247.00
2023-02-07T15:26:58.462Z,100248.94
2023-02-07T15:29:28.577Z,100244.00
2023-02-07T15:31:56.124Z,100246.78
2023-02-07T15:34:31.485Z,100248.75
2023-02-07T15:37:00.644Z,100249.19
2023-02-07T15:39:29.356Z,100249.25
2023-02-07T15:41:57.127Z,100254.69
2023-02-07T15:44:29.588Z,100247.06
2023-02-07T15:47:01.906Z,100251.75
2023-02-07T15:49:30.379Z,100249.84
2023-02-07T15:52:01.998Z,100251.78
2023-02-07T15:54:29.106Z,100252.16
2023-02-07T15:57:00.020Z,100259.88
2023-02-07T15:59:31.485Z,100264.16
2023-02-07T16:02:00.946Z,100263.38
2023-02-07T16:04:30.473Z,100267.25
2023-02-07T16:07:01.608Z,100276.47
2023-02-07T16:09:43.249Z,100287.22
2023-02-07T16:12:32.132Z,100286.84
2023-02-07T16:15:00.635Z,100291.84
2023-02-07T16:17:41.883Z,100293.03
2023-02-07T16:20:14.445Z,100289.59
2023-02-07T16:22:45.324Z,100294.59
2023-02-07T16:25:19.254Z,100295.78
2023-02-07T16:27:48.963Z,100290.41
2023-02-07T16:30:25.825Z,100296.16
2023-02-07T16:32:52.949Z,100302.72
2023-02-07T16:35:23.119Z,100301.94
2023-02-07T16:37:50.462Z,100301.16
2023-02-07T16:40:18.340Z,100301.53
2023-02-07T16:42:45.611Z,100310.41
2023-02-07T16:45:25.423Z,100320.75
2023-02-07T16:47:52.552Z,100329.56
2023-02-07T16:50:21.684Z,100328.41
2023-02-07T16:52:49.820Z,100330.34
2023-02-07T16:55:18.434Z,100336.47
2023-02-07T16:57:47.567Z,100336.47
2023-02-07T17:00:21.115Z,100343.75
2023-02-07T17:02:50.428Z,100341.84
2023-02-07T17:05:18.812Z,100346.03
2023-02-07T17:07:46.571Z,100348.31
2023-02-07T17:10:21.560Z,100355.59
2023-02-07T17:12:48.692Z,100351.72
2023-02-07T17:15:16.531Z,100361.69
2023-02-07T17:17:43.653Z,100364.00
2023-02-07T17:20:21.742Z,100369.34
2023-02-07T17:25:22.637Z,100365.47
2023-02-07T17:27:49.758Z,100367.41
2023-02-07T17:30:22.016Z,100371.19
2023-02-07T17:32:49.485Z,100370.81
2023-02-07T17:35:16.577Z,100376.19
2023-02-07T17:37:43.758Z,100370.78
2023-02-07T17:40:23.900Z,100373.84
2023-02-07T17:42:51.141Z,100375.75
2023-02-07T17:45:18.259Z,100375.00
2023-02-07T17:47:45.554Z,100378.41
2023-02-07T17:50:21.344Z,100377.97
2023-02-07T17:52:48.429Z,100374.53
2023-02-07T17:55:16.181Z,100379.09
2023-02-07T17:57:43.781Z,100375.25
2023-02-07T18:00:24.144Z,100369.84
2023-02-07T18:02:51.527Z,100369.09
2023-02-07T18:05:18.662Z,100375.19
2023-02-07T18:07:46.614Z,100373.25
2023-02-07T18:10:20.035Z,100369.81
2023-02-07T18:12:47.414Z,100364.03
2023-02-07T18:15:14.852Z,100367.44
2023-02-07T18:17:47.185Z,100364.34
2023-02-07T18:20:20.094Z,100365.44
2023-02-07T18:22:47.382Z,100363.91
2023-02-07T18:25:14.823Z,100366.53
2023-02-07T18:27:42.724Z,100368.81
2023-02-07T18:30:20.944Z,100368.06
2023-02-07T18:32:48.881Z,100374.19
2023-02-07T18:35:16.443Z,100377.19
2023-02-07T18:37:43.524Z,100370.69
2023-02-07T18:40:12.967Z,100376.03
2023-02-07T18:42:40.057Z,100381.78
2023-02-07T18:45:07.672Z,100380.63
2023-02-07T18:47:34.986Z,100392.44
2023-02-07T18:50:02.045Z,100388.22
2023-02-07T18:52:29.632Z,100392.00
2023-02-07T18:54:57.828Z,100393.50
2023-02-07T18:57:24.854Z,100387.75
2023-02-07T18:59:52.258Z,100389.22
2023-02-07T19:02:19.446Z,100393.38
2023-02-07T19:04:47.624Z,100382.28
2023-02-07T19:07:15.005Z,100385.25
2023-02-07T19:09:42.184Z,100392.84
2023-02-07T19:12:10.772Z,100392.81
2023-02-07T19:14:38.245Z,100386.66
2023-02-07T19:17:05.346Z,100395.03
2023-02-07T19:19:32.754Z,100396.78
2023-02-07T19:22:00.329Z,100394.38
2023-02-07T19:24:27.891Z,100393.16
2023-02-07T19:26:56.731Z,100398.56
2023-02-07T19:29:29.477Z,100397.78
2023-02-07T19:32:02.089Z,100399.66
2023-02-07T19:34:29.497Z,100405.31
2023-02-07T19:36:56.974Z,100396.88
2023-02-07T19:39:24.814Z,100402.91
2023-02-07T19:41:52.033Z,100396.81
2023-02-07T19:44:19.095Z,100397.53
2023-02-07T19:46:46.373Z,100398.25
2023-02-07T19:49:13.995Z,100395.19
2023-02-07T19:51:41.834Z,100387.50
2023-02-07T19:54:08.910Z,100387.06
2023-02-07T19:56:36.631Z,100383.59
2023-02-07T19:59:05.334Z,100387.75
2023-02-07T20:01:34.180Z,100389.97
2023-02-07T20:04:01.502Z,100386.06
2023-02-07T20:06:33.051Z,100382.94
2023-02-07T20:09:03.784Z,100381.72
2023-02-07T20:11:31.014Z,100380.22
2023-02-07T20:14:03.991Z,100380.22
2023-02-07T20:16:34.469Z,100391.22
2023-02-07T20:19:02.692Z,100377.81
2023-02-07T20:21:30.589Z,100387.66
2023-02-07T20:23:57.754Z,100381.88
2023-02-07T20:26:31.572Z,100376.53
2023-02-07T20:29:06.722Z,100381.53
2023-02-07T20:31:34.019Z,100375.44
2023-02-07T20:34:02.068Z,100374.28
2023-02-07T20:36:30.852Z,100375.41
2023-02-07T20:38:59.327Z,100370.78
2023-02-07T20:41:32.455Z,100360.16
2023-02-07T20:44:04.354Z,100371.97
2023-02-07T20:46:34.239Z,100369.59
2023-02-07T20:49:04.419Z,100369.97
2023-02-07T20:51:31.782Z,100377.09
2023-02-07T20:54:00.576Z,100379.66
2023-02-07T20:56:28.348Z,100378.84
2023-02-07T20:58:55.796Z,100374.56
2023-02-07T21:01:24.555Z,100385.13
2023-02-07T21:03:53.648Z,100377.13
2023-02-07T21:06:22.893Z,100379.03
2023-02-07T21:09:00.059Z,100385.88
2023-02-07T21:11:36.060Z,100381.66
2023-02-07T21:14:05.251Z,100379.28
2023-02-07T21:16:32.663Z,100388.44
2023-02-07T21:19:00.136Z,100391.50
2023-02-07T21:21:27.784Z,100378.56
2023-02-07T21:23:55.116Z,100375.13
2023-02-07T21:26:22.176Z,100374.69
2023-02-07T21:28:49.624Z,100368.50
2023-02-07T21:31:19.500Z,100380.69
2023-02-07T21:33:47.634Z,100379.44
2023-02-07T21:36:18.048Z,100389.22
2023-02-07T21:38:48.504Z,100385.00
2023-02-07T21:41:17.863Z,100378.13
2023-02-07T21:43:45.036Z,100380.38
2023-02-07T21:46:17.894Z,100374.63
2023-02-07T21:48:46.449Z,100376.47
2023-02-07T21:51:16.354Z,100375.63
2023-02-07T21:53:44.464Z,100374.09
2023-02-07T21:56:15.767Z,100363.47
2023-02-07T21:58:43.402Z,100363.19
2023-02-07T22:01:16.690Z,100362.72
2023-02-07T22:03:45.997Z,100373.44
2023-02-07T22:06:15.083Z,100370.44
2023-02-07T22:08:47.473Z,100364.59
2023-02-07T22:11:17.671Z,100365.03
2023-02-07T22:13:45.461Z,100360.41
2023-02-07T22:16:13.998Z,100356.75
2023-02-07T22:18:41.886Z,100356.91
2023-02-07T22:21:11.705Z,100363.78
2023-02-07T22:23:38.786Z,100361.13
2023-02-07T22:26:06.499Z,100359.16
2023-02-07T22:28:33.941Z,100354.19
2023-02-07T22:31:01.236Z,100348.13
2023-02-07T22:33:28.466Z,100345.91
2023-02-07T22:35:55.536Z,100337.19
2023-02-07T22:38:23.171Z,100344.84
2023-02-07T22:40:50.218Z,100338.97
2023-02-07T22:43:17.323Z,100338.91
2023-02-07T22:45:46.131Z,100333.22
2023-02-07T22:48:15.328Z,100328.09
2023-02-07T22:50:43.339Z,100325.03
2023-02-07T22:53:13.361Z,100322.28
2023-02-07T22:55:40.924Z,100326.78
2023-02-07T22:58:08.428Z,100318.47
2023-02-07T23:00:35.735Z,100321.50
2023-02-07T23:03:02.811Z,100323.03
2023-02-07T23:05:29.901Z,100326.06
2023-02-07T23:07:56.985Z,100328.72
2023-02-07T23:10:26.327Z,100330.69
2023-02-07T23:12:53.621Z,100325.44
2023-02-07T23:15:20.686Z,100332.94
2023-02-07T23:17:47.707Z,100337.84
2023-02-07T23:20:15.096Z,100328.56
2023-02-07T23:22:42.137Z,100330.22
2023-02-07T23:25:10.000Z,100335.19
2023-02-07T23:27:37.235Z,100338.53
2023-02-07T23:30:04.812Z,100339.72
2023-02-07T23:32:31.886Z,100343.44
2023-02-07T23:34:59.127Z,100338.66
2023-02-07T23:37:26.193Z,100341.69
2023-02-07T23:39:53.242Z,100339.22
2023-02-07T23:42:20.250Z,100346.44
2023-02-07T23:44:50.270Z,100356.75
2023-02-07T23:47:18.406Z,100351.00
2023-02-07T23:49:45.639Z,100351.25
2023-02-07T23:52:12.779Z,100355.03
2023-02-07T23:54:40.101Z,100357.69
2023-02-07T23:57:07.150Z,100359.59
2023-02-07T23:59:34.852Z,100356.41
